Time;durP1;ratioP1;P1;durP2;ratioP2;P2;SDS_P1;SDS_P2;PMS_P1;PMS_P2;Temp;Humidity;BMP_temperature;BMP_pressure;BME280_temperature;BME280_humidity;BME280_pressure;Samples;Min_cycle;Max_cycle;Signal;HPM_P1;HPM_P2
2023/08/30 00:00:04;;;;;;;15.90;14.30;;;;;;;19.95;100.00;92004.09;5069270;28;20202;-82
2023/08/30 00:02:30;;;;;;;15.67;14.17;;;;;;;19.84;100.00;91990.66;5069934;28;20213;-81
2023/08/30 00:04:59;;;;;;;17.60;15.80;;;;;;;19.91;100.00;92006.69;5068818;28;20185;-80
2023/08/30 00:07:24;;;;;;;17.27;15.15;;;;;;;20.02;100.00;92015.59;5069790;28;20188;-82
2023/08/30 00:09:50;;;;;;;17.70;15.30;;;;;;;20.09;100.00;92014.97;5068420;28;20219;-77
2023/08/30 00:12:15;;;;;;;19.33;14.48;;;;;;;20.05;100.00;92006.19;5069352;28;20183;-81
2023/08/30 00:14:41;;;;;;;16.98;15.23;;;;;;;19.88;100.00;92002.09;5067844;28;20192;-82
2023/08/30 00:17:07;;;;;;;17.27;15.53;;;;;;;20.01;100.00;92008.00;5054026;28;20293;-81
2023/08/30 00:19:32;;;;;;;17.23;15.53;;;;;;;19.99;100.00;92013.66;5066800;28;20188;-81
2023/08/30 00:21:57;;;;;;;16.97;15.30;;;;;;;19.71;100.00;91999.88;5072923;28;20236;-83
2023/08/30 00:24:23;;;;;;;15.98;14.52;;;;;;;19.50;100.00;91978.25;5063480;28;20202;-81
2023/08/30 00:26:48;;;;;;;16.58;14.88;;;;;;;19.73;100.00;92008.22;5068996;28;20307;-81
2023/08/30 00:29:13;;;;;;;17.70;15.47;;;;;;;19.56;100.00;92008.66;5068635;28;20204;-83
2023/08/30 00:31:39;;;;;;;15.65;14.35;;;;;;;19.59;100.00;92015.91;5068952;28;20244;-77
2023/08/30 00:34:04;;;;;;;14.90;13.40;;;;;;;19.37;100.00;91998.03;5069080;28;20196;-81
2023/08/30 00:36:30;;;;;;;15.80;14.30;;;;;;;19.42;100.00;91986.41;5068790;28;20283;-81
2023/08/30 00:38:55;;;;;;;14.90;13.60;;;;;;;19.49;100.00;92000.53;5068418;28;20180;-82
2023/08/30 00:41:21;;;;;;;15.73;14.23;;;;;;;19.25;100.00;91973.53;5068905;28;20269;-82
2023/08/30 00:43:46;;;;;;;14.40;13.10;;;;;;;19.44;100.00;92005.34;5068504;28;20192;-81
2023/08/30 00:46:13;;;;;;;13.50;12.37;;;;;;;19.36;100.00;92016.91;5068815;28;20219;-78
2023/08/30 00:48:39;;;;;;;14.03;12.87;;;;;;;19.24;100.00;92019.66;5067823;28;20191;-81
2023/08/30 00:51:05;;;;;;;13.93;12.50;;;;;;;19.20;100.00;92008.97;5067122;28;20231;-81
2023/08/30 00:53:30;;;;;;;14.87;13.37;;;;;;;19.36;100.00;92014.25;5055898;28;20187;-80
2023/08/30 00:55:55;;;;;;;14.10;12.50;;;;;;;19.21;100.00;92015.78;5068429;28;20225;-81
2023/08/30 00:58:21;;;;;;;13.47;12.17;;;;;;;19.09;100.00;92007.97;5069015;28;20206;-81
2023/08/30 01:00:47;;;;;;;13.73;12.30;;;;;;;19.15;99.28;92014.53;5066732;28;20266;-80
2023/08/30 01:03:13;;;;;;;13.48;12.18;;;;;;;19.06;94.02;92016.59;5071288;28;20192;-81
2023/08/30 01:05:38;;;;;;;13.57;12.47;;;;;;;19.11;97.67;92000.47;5072986;28;20965;-81
2023/08/30 01:08:04;;;;;;;13.43;12.23;;;;;;;19.12;97.84;92009.94;5079843;28;20213;-78
2023/08/30 01:11:08;;;;;;;13.10;11.83;;;;;;;19.15;92.09;92007.38;5079101;28;20293;-80
2023/08/30 01:13:39;;;;;;;12.67;11.67;;;;;;;19.21;93.95;92010.50;5073193;28;20195;-80
2023/08/30 01:16:05;;;;;;;13.10;12.00;;;;;;;19.54;94.69;92013.50;5072239;28;20220;-80
2023/08/30 01:18:34;;;;;;;14.23;12.83;;;;;;;19.62;94.54;92015.19;5070693;28;20187;-80
2023/08/30 01:21:03;;;;;;;14.33;12.20;;;;;;;19.50;95.32;92020.63;5072332;28;20222;-79
2023/08/30 01:23:54;;;;;;;13.23;12.03;;;;;;;19.54;96.33;92026.75;5070656;28;20240;-80
2023/08/30 01:26:37;;;;;;;13.45;12.25;;;;;;;19.47;99.04;92023.94;5072249;28;20303;-80
2023/08/30 01:29:04;;;;;;;13.43;12.30;;;;;;;19.09;100.00;92024.63;5059764;28;20191;-81
2023/08/30 01:31:33;;;;;;;13.77;12.47;;;;;;;19.29;96.11;92009.56;5071996;28;20329;-80
2023/08/30 01:33:59;;;;;;;13.07;11.97;;;;;;;19.29;96.57;92025.47;5072046;28;20183;-80
2023/08/30 01:36:25;;;;;;;12.47;11.40;;;;;;;19.24;98.44;92033.63;5070469;28;20258;-80
2023/08/30 01:38:51;;;;;;;14.70;13.20;;;;;;;19.30;100.00;92034.91;5059684;28;20262;-79
2023/08/30 01:41:18;;;;;;;13.53;12.33;;;;;;;19.37;99.34;92040.38;5083605;28;20717;-80
2023/08/30 01:43:44;;;;;;;13.93;12.73;;;;;;;19.33;97.44;92028.94;5072507;28;20201;-79
2023/08/30 01:46:10;;;;;;;13.18;11.98;;;;;;;19.46;98.33;92030.38;5071502;28;20224;-80
2023/08/30 01:48:36;;;;;;;13.80;12.50;;;;;;;19.48;97.24;92020.19;5071717;28;20184;-81
2023/08/30 01:51:02;;;;;;;13.57;12.23;;;;;;;19.42;98.57;92032.19;5071939;28;20286;-83
2023/08/30 01:53:29;;;;;;;14.07;12.80;;;;;;;19.41;97.94;92035.19;5072189;28;20187;-80
2023/08/30 01:55:54;;;;;;;12.07;11.13;;;;;;;19.38;97.83;92030.56;5070515;28;20227;-80
2023/08/30 01:58:20;;;;;;;12.65;11.57;;;;;;;19.36;98.46;92027.50;5071271;28;20206;-80
2023/08/30 02:00:45;;;;;;;13.90;12.47;;;;;;;19.18;100.00;92033.13;5071644;28;20224;-81
2023/08/30 02:03:13;;;;;;;13.43;12.13;;;;;;;19.11;97.95;92025.03;5070886;28;20189;-81
2023/08/30 02:06:20;;;;;;;13.40;11.73;;;;;;;19.08;98.00;92017.03;5058458;28;20229;-81
2023/08/30 02:09:04;;;;;;;12.82;11.82;;;;;;;19.12;99.72;92023.16;5064436;28;20192;-81
2023/08/30 02:11:34;;;;;;;13.27;12.07;;;;;;;19.09;100.00;92026.50;5059561;28;20272;-81
2023/08/30 02:14:00;;;;;;;13.57;12.20;;;;;;;18.89;100.00;92024.91;5070372;28;20200;-81
2023/08/30 02:16:28;;;;;;;12.43;11.40;;;;;;;18.95;100.00;92021.66;5062404;28;20229;-80
2023/08/30 02:18:53;;;;;;;14.37;11.67;;;;;;;18.85;100.00;92018.75;5066028;28;20186;-80
2023/08/30 02:21:19;;;;;;;13.43;12.13;;;;;;;18.74;100.00;92002.63;5070075;28;20222;-80
2023/08/30 02:23:49;;;;;;;14.13;12.97;;;;;;;18.76;100.00;92000.44;5058359;28;20184;-80
2023/08/30 02:26:15;;;;;;;12.20;11.10;;;;;;;18.73;100.00;92014.34;5071325;28;20211;-80
2023/08/30 02:28:40;;;;;;;13.60;12.50;;;;;;;18.57;100.00;92000.34;5070957;28;20222;-80
2023/08/30 02:31:05;;;;;;;13.33;11.93;;;;;;;18.54;98.94;92013.47;5070497;28;20242;-80
2023/08/30 02:33:31;;;;;;;13.37;12.27;;;;;;;18.19;100.00;92012.56;5071583;28;20206;-80
2023/08/30 02:35:56;;;;;;;12.67;11.77;;;;;;;18.44;100.00;92014.78;5070968;28;20246;-80
2023/08/30 02:38:22;;;;;;;13.13;11.77;;;;;;;18.41;100.00;92017.31;5071120;28;20196;-79
2023/08/30 02:40:47;;;;;;;13.17;11.97;;;;;;;18.37;100.00;92024.34;5071038;28;20844;-80
2023/08/30 02:43:12;;;;;;;12.90;11.50;;;;;;;18.30;100.00;92026.81;5058544;28;20194;-83
2023/08/30 02:45:38;;;;;;;17.07;12.00;;;;;;;18.26;100.00;92023.31;5054883;28;20223;-81
2023/08/30 02:48:04;;;;;;;14.03;12.80;;;;;;;18.09;100.00;92019.13;5070483;28;20187;-83
2023/08/30 02:50:29;;;;;;;13.13;11.60;;;;;;;18.02;100.00;92010.25;5073326;28;20240;-81
2023/08/30 02:52:54;;;;;;;12.47;11.23;;;;;;;18.09;99.42;92010.41;5068790;28;20378;-81
2023/08/30 02:55:20;;;;;;;13.70;12.13;;;;;;;18.06;97.92;92000.53;5063427;28;20232;-81
2023/08/30 02:57:46;;;;;;;12.80;11.57;;;;;;;18.16;98.46;92002.69;5070425;28;20220;-81
2023/08/30 03:00:12;;;;;;;13.27;11.87;;;;;;;18.23;98.07;92011.56;5073752;28;20284;-78
2023/08/30 03:02:38;;;;;;;12.30;11.30;;;;;;;18.22;96.75;92001.31;5061190;28;20197;-81
2023/08/30 03:05:04;;;;;;;13.90;10.87;;;;;;;17.96;97.42;91972.72;5061629;28;20183;-81
2023/08/30 03:07:29;;;;;;;12.60;11.40;;;;;;;18.12;97.10;91996.53;5064855;28;20202;-79
2023/08/30 03:09:55;;;;;;;12.40;11.23;;;;;;;18.14;97.35;92005.66;5061091;28;20213;-80
2023/08/30 03:12:20;;;;;;;12.67;11.57;;;;;;;18.22;97.91;92007.38;5067829;28;20206;-81
2023/08/30 03:14:47;;;;;;;11.97;10.97;;;;;;;18.01;97.92;92006.81;5050887;28;20180;-80
2023/08/30 03:17:12;;;;;;;12.60;11.47;;;;;;;18.03;98.17;91998.56;5054146;28;20293;-81
2023/08/30 03:19:38;;;;;;;12.73;11.50;;;;;;;18.06;98.36;92005.81;5063571;28;20203;-81
2023/08/30 03:22:03;;;;;;;12.93;11.57;;;;;;;17.94;99.68;92011.16;5073775;28;20215;-81
2023/08/30 03:24:28;;;;;;;12.13;11.13;;;;;;;17.98;99.50;92012.78;5061344;28;20176;-81
2023/08/30 03:26:54;;;;;;;12.20;11.30;;;;;;;17.95;99.89;92010.03;5060347;28;20242;-81
2023/08/30 03:29:19;;;;;;;12.47;11.23;;;;;;;17.87;100.00;92005.69;5065578;28;20186;-80
2023/08/30 03:31:45;;;;;;;11.80;10.80;;;;;;;17.83;100.00;92010.09;5055874;28;20245;-81
2023/08/30 03:34:10;;;;;;;10.97;9.97;;;;;;;17.65;100.00;91996.41;5069773;28;20199;-80
2023/08/30 03:36:37;;;;;;;12.70;11.70;;;;;;;17.81;99.59;92001.75;5067332;28;20237;-80
2023/08/30 03:39:02;;;;;;;11.47;10.47;;;;;;;17.76;97.53;91994.06;5070511;28;20178;-80
2023/08/30 03:41:28;;;;;;;12.57;11.37;;;;;;;17.73;98.30;91978.91;5069482;28;20254;-80
2023/08/30 03:43:53;;;;;;;12.63;11.33;;;;;;;17.72;97.31;91993.19;5069254;28;20204;-79
2023/08/30 03:46:18;;;;;;;13.13;11.73;;;;;;;17.72;97.00;91991.34;5069556;28;20238;-80
2023/08/30 03:48:44;;;;;;;14.17;10.93;;;;;;;17.62;96.40;91991.06;5069387;28;20183;-80
2023/08/30 03:51:09;;;;;;;10.90;9.83;;;;;;;17.59;95.99;91979.28;5069021;28;20242;-79
2023/08/30 03:53:35;;;;;;;11.53;10.43;;;;;;;17.76;94.66;91999.38;5070235;28;20179;-80
2023/08/30 03:56:00;;;;;;;14.03;11.50;;;;;;;17.73;93.17;91995.50;5069466;28;20256;-80
2023/08/30 03:58:26;;;;;;;10.80;9.93;;;;;;;17.79;92.70;92004.72;5076030;28;20205;-80
2023/08/30 04:00:51;;;;;;;10.33;9.57;;;;;;;17.87;92.68;92011.72;5069735;28;20218;-80
2023/08/30 04:03:16;;;;;;;12.33;10.47;;;;;;;17.86;93.46;92020.00;5068220;28;20193;-80
2023/08/30 04:05:42;;;;;;;12.13;10.07;;;;;;;17.87;92.85;92030.22;5067621;28;20253;-81
2023/08/30 04:08:08;;;;;;;10.53;9.73;;;;;;;17.90;93.66;92026.16;5068031;28;20192;-79
2023/08/30 04:10:37;;;;;;;11.57;10.53;;;;;;;18.11;91.09;92026.69;5068037;28;20231;-81
2023/08/30 04:13:07;;;;;;;10.73;9.67;;;;;;;18.25;90.49;92004.06;5061281;28;20193;-82
2023/08/30 04:15:33;;;;;;;12.63;11.33;;;;;;;18.63;91.00;92012.19;5067699;28;20245;-77
2023/08/30 04:17:59;;;;;;;12.73;10.63;;;;;;;18.75;90.85;92019.28;5068970;28;20727;-81
2023/08/30 04:20:24;;;;;;;14.77;10.00;;;;;;;19.11;90.00;92027.69;5065894;28;20317;-81
2023/08/30 04:22:50;;;;;;;10.27;9.30;;;;;;;19.54;88.73;92018.03;5067986;28;20189;-77
2023/08/30 04:25:15;;;;;;;10.73;9.70;;;;;;;19.94;84.49;92040.44;5069170;28;20219;-82
2023/08/30 04:27:40;;;;;;;9.97;9.07;;;;;;;19.71;79.36;92034.28;5076888;28;20267;-82
2023/08/30 04:30:06;;;;;;;11.67;10.50;;;;;;;20.13;78.13;92051.06;5072985;28;20265;-83
2023/08/30 04:32:32;;;;;;;9.70;8.90;;;;;;;20.41;74.81;92064.06;5069273;28;20179;-82
2023/08/30 04:34:57;;;;;;;10.13;9.07;;;;;;;21.01;73.69;92063.25;5067871;28;20195;-81
2023/08/30 04:37:23;;;;;;;9.52;8.80;;;;;;;21.04;74.09;92056.47;5068759;28;20288;-82
2023/08/30 04:39:49;;;;;;;10.40;8.70;;;;;;;21.04;72.74;92075.03;5069285;28;20188;-82
2023/08/30 04:42:15;;;;;;;12.70;9.57;;;;;;;21.01;73.36;92081.06;5067553;28;20224;-82
2023/08/30 04:44:40;;;;;;;10.30;9.57;;;;;;;20.96;76.22;92081.34;5067831;28;20212;-80
2023/08/30 04:47:05;;;;;;;10.85;9.80;;;;;;;21.28;79.27;92088.69;5068329;28;20233;-79
2023/08/30 04:49:31;;;;;;;13.57;9.63;;;;;;;20.73;82.69;92072.59;5061155;28;20193;-82
2023/08/30 04:51:56;;;;;;;13.80;9.75;;;;;;;20.72;80.91;92087.75;5068112;28;20236;-84
2023/08/30 04:54:21;;;;;;;12.45;10.55;;;;;;;20.76;79.45;92099.19;5052540;28;20932;-87
2023/08/30 04:56:47;;;;;;;15.05;10.82;;;;;;;20.43;82.30;92067.91;5062027;28;20230;-83
2023/08/30 04:59:12;;;;;;;17.52;11.82;;;;;;;20.29;83.15;92067.66;5063094;28;20192;-83
2023/08/30 05:01:38;;;;;;;13.70;11.80;;;;;;;20.43;83.30;92080.41;5058199;28;20228;-82
2023/08/30 05:04:05;;;;;;;12.23;10.75;;;;;;;20.53;84.41;92079.81;5057885;28;20196;-81
2023/08/30 05:06:31;;;;;;;16.10;12.20;;;;;;;20.36;86.74;92081.03;5057572;28;20339;-82
2023/08/30 05:08:58;;;;;;;14.20;12.85;;;;;;;20.20;88.27;92077.69;5068236;28;20184;-82
2023/08/30 05:11:23;;;;;;;14.13;12.45;;;;;;;20.00;91.21;92076.13;5068044;28;20232;-87
2023/08/30 05:13:48;;;;;;;15.57;12.57;;;;;;;20.14;90.42;92081.75;5064101;28;20222;-86
2023/08/30 05:16:14;;;;;;;13.90;12.43;;;;;;;20.26;90.21;92078.19;5082003;28;20310;-83
2023/08/30 05:18:39;;;;;;;17.08;11.80;;;;;;;20.39;86.12;92074.25;5066276;28;20188;-88
2023/08/30 05:21:05;;;;;;;13.10;11.88;;;;;;;20.62;85.36;92083.78;5057186;28;20255;-89
2023/08/30 05:23:31;;;;;;;17.70;12.80;;;;;;;20.56;87.76;92079.88;5059101;28;20180;-89
2023/08/30 05:25:56;;;;;;;14.43;12.57;;;;;;;20.64;88.52;92081.53;5066917;28;20225;-88
2023/08/30 05:28:22;;;;;;;13.70;12.03;;;;;;;20.75;83.23;92091.59;5067610;28;20253;-89
2023/08/30 05:30:47;;;;;;;13.65;12.20;;;;;;;20.67;85.78;92103.94;5066554;28;20233;-84
2023/08/30 05:33:12;;;;;;;16.55;12.88;;;;;;;20.93;85.10;92116.53;5054408;28;20224;-79
2023/08/30 05:35:38;;;;;;;13.45;11.75;;;;;;;20.88;84.00;92106.19;5063514;28;20230;-81
2023/08/30 05:38:03;;;;;;;16.25;12.45;;;;;;;20.81;87.11;92095.47;5064448;28;20191;-85
2023/08/30 05:40:29;;;;;;;13.15;11.50;;;;;;;20.92;81.36;92101.75;5054863;28;20224;-83
2023/08/30 05:42:55;;;;;;;11.40;10.02;;;;;;;20.58;80.89;92093.56;5057557;28;20192;-79
2023/08/30 05:45:20;;;;;;;12.10;10.90;;;;;;;20.69;81.15;92086.56;5059586;28;20276;-81
2023/08/30 05:47:46;;;;;;;11.80;10.70;;;;;;;20.73;79.46;92078.69;5052335;28;20193;-79
2023/08/30 05:50:11;;;;;;;11.82;10.57;;;;;;;21.29;77.98;92100.84;5058725;28;20258;-80
2023/08/30 05:52:41;;;;;;;14.48;9.95;;;;;;;21.49;76.29;92101.53;5057675;28;20191;-85
2023/08/30 05:55:09;;;;;;;12.48;10.30;;;;;;;21.88;71.47;92087.69;5065869;28;20247;-85
2023/08/30 05:57:34;;;;;;;10.30;9.20;;;;;;;21.99;69.78;92101.13;5063764;28;20189;-85
2023/08/30 06:00:01;;;;;;;10.02;9.13;;;;;;;23.36;64.90;92108.72;5068347;28;20178;-84
2023/08/30 06:02:27;;;;;;;10.55;9.60;;;;;;;25.58;59.56;92107.75;5061489;28;20253;-81
2023/08/30 06:04:52;;;;;;;11.60;10.02;;;;;;;26.01;56.62;92113.84;5065089;28;20195;-78
2023/08/30 06:07:17;;;;;;;12.45;10.38;;;;;;;24.75;60.74;92098.44;5062058;28;20233;-82
2023/08/30 06:09:44;;;;;;;12.07;9.27;;;;;;;23.50;63.60;92098.16;5056917;28;20183;-87
2023/08/30 06:12:09;;;;;;;11.55;10.35;;;;;;;22.36;69.52;92099.31;5054666;28;20217;-82
2023/08/30 06:14:35;;;;;;;10.50;9.57;;;;;;;21.75;69.46;92081.06;5078714;28;20179;-83
2023/08/30 06:17:00;;;;;;;12.07;8.80;;;;;;;22.21;67.48;92102.94;5059208;28;20246;-81
2023/08/30 06:19:25;;;;;;;10.25;9.35;;;;;;;21.68;68.77;92086.25;5067329;28;20230;-81
2023/08/30 06:21:51;;;;;;;13.27;12.05;;;;;;;22.07;67.39;92102.75;5056166;28;20228;-81
2023/08/30 06:24:16;;;;;;;16.35;10.52;;;;;;;21.89;67.39;92096.44;5063205;28;20191;-80
2023/08/30 06:26:42;;;;;;;11.13;9.50;;;;;;;21.76;66.41;92090.56;5060723;28;20320;-82
2023/08/30 06:29:07;;;;;;;14.73;9.18;;;;;;;21.86;68.13;92100.59;5059372;28;20202;-82
2023/08/30 06:31:32;;;;;;;10.10;9.20;;;;;;;21.64;66.93;92113.91;5058249;28;20278;-82
2023/08/30 06:33:58;;;;;;;10.35;9.55;;;;;;;22.22;64.95;92112.44;5061188;28;20208;-84
2023/08/30 06:36:23;;;;;;;9.50;8.80;;;;;;;22.23;65.14;92100.66;5060168;28;20227;-84
2023/08/30 06:38:49;;;;;;;11.02;8.88;;;;;;;22.36;66.43;92109.94;5053219;28;20178;-79
2023/08/30 06:41:14;;;;;;;9.82;8.88;;;;;;;22.02;67.62;92116.38;5062826;28;20229;-84
2023/08/30 06:43:40;;;;;;;10.20;9.38;;;;;;;22.12;67.09;92110.41;5069960;28;20174;-90
2023/08/30 06:46:05;;;;;;;11.80;9.52;;;;;;;22.45;65.57;92102.44;5064232;28;20222;-83
2023/08/30 06:48:30;;;;;;;10.07;9.02;;;;;;;23.00;62.86;92125.50;5063846;28;20243;-82
2023/08/30 06:50:59;;;;;;;9.70;8.90;;;;;;;22.87;63.17;92110.13;5063459;28;21297;-82
2023/08/30 06:53:26;;;;;;;9.55;8.45;;;;;;;23.02;63.15;92109.16;5065748;28;20195;-83
2023/08/30 06:56:02;;;;;;;9.93;9.02;;;;;;;23.24;65.05;92108.97;5061317;28;20218;-82
2023/08/30 06:58:27;;;;;;;10.45;9.45;;;;;;;23.45;60.41;92111.84;5067144;28;20251;-81
2023/08/30 07:00:53;;;;;;;10.02;8.90;;;;;;;23.41;61.74;92116.38;5061049;28;20788;-80
2023/08/30 07:03:19;;;;;;;10.18;9.05;;;;;;;23.27;62.66;92121.56;5070234;28;20196;-78
2023/08/30 07:05:44;;;;;;;10.80;9.82;;;;;;;23.20;62.61;92112.72;5074381;28;20252;-81
2023/08/30 07:08:09;;;;;;;11.75;8.93;;;;;;;22.93;63.52;92116.66;5075625;28;20226;-81
2023/08/30 07:10:36;;;;;;;9.80;9.00;;;;;;;22.98;61.64;92113.66;5059940;28;20223;-83
2023/08/30 07:13:02;;;;;;;9.55;8.63;;;;;;;23.02;62.08;92115.22;5077473;28;20212;-84
2023/08/30 07:15:27;;;;;;;11.02;9.20;;;;;;;23.01;64.07;92112.94;5063480;28;20222;-84
2023/08/30 07:17:53;;;;;;;10.55;9.50;;;;;;;23.17;64.81;92122.25;5073918;28;20211;-85
2023/08/30 07:20:20;;;;;;;9.85;9.02;;;;;;;23.68;61.16;92109.72;5061616;28;20250;-82
2023/08/30 07:22:46;;;;;;;10.15;9.23;;;;;;;23.53;60.22;92104.66;5062342;28;20778;-83
2023/08/30 07:25:12;;;;;;;9.88;8.88;;;;;;;23.60;60.43;92113.47;5070024;28;20236;-82
2023/08/30 07:27:38;;;;;;;10.15;9.13;;;;;;;23.62;58.52;92111.22;5070444;28;20242;-81
2023/08/30 07:30:04;;;;;;;10.68;9.57;;;;;;;23.40;59.00;92114.06;5060192;28;20219;-82
2023/08/30 07:32:30;;;;;;;9.32;8.43;;;;;;;23.60;58.45;92121.47;5056736;28;20180;-80
2023/08/30 07:34:55;;;;;;;11.88;9.40;;;;;;;24.07;55.22;92122.53;5080812;28;20210;-79
2023/08/30 07:37:21;;;;;;;10.10;9.38;;;;;;;24.03;55.38;92116.44;5081449;28;20234;-78
2023/08/30 07:39:46;;;;;;;10.30;9.20;;;;;;;23.22;59.40;92119.22;5069164;28;20210;-82
2023/08/30 07:42:12;;;;;;;10.70;9.75;;;;;;;23.54;60.39;92117.63;5064713;28;20224;-82
2023/08/30 07:44:38;;;;;;;12.50;9.23;;;;;;;23.41;59.16;92110.25;5068467;28;20188;-81
2023/08/30 07:47:03;;;;;;;10.25;9.25;;;;;;;23.05;58.64;92109.16;5068558;28;20227;-80
2023/08/30 07:49:29;;;;;;;11.20;8.80;;;;;;;23.47;57.68;92114.13;5074695;28;20222;-81
2023/08/30 07:51:54;;;;;;;9.55;8.75;;;;;;;24.10;56.14;92113.78;5066296;28;20255;-82
2023/08/30 07:54:19;;;;;;;9.82;9.02;;;;;;;23.62;58.70;92119.22;5068313;28;20184;-83
2023/08/30 07:56:45;;;;;;;10.02;9.10;;;;;;;23.90;56.46;92113.28;5069346;28;20302;-81
2023/08/30 07:59:10;;;;;;;10.63;9.82;;;;;;;23.45;57.81;92116.41;5069220;28;20212;-82
2023/08/30 08:01:35;;;;;;;9.40;8.60;;;;;;;23.91;55.76;92130.06;5074643;28;20233;-79
2023/08/30 08:04:01;;;;;;;9.30;8.60;;;;;;;23.57;55.14;92130.19;5077266;28;20196;-84
2023/08/30 08:06:26;;;;;;;9.10;8.40;;;;;;;23.57;56.05;92130.19;5074564;28;20230;-86
2023/08/30 08:08:51;;;;;;;11.07;8.82;;;;;;;23.62;54.08;92129.88;5069998;28;20197;-81
2023/08/30 08:11:17;;;;;;;8.82;8.13;;;;;;;24.13;53.29;92131.72;5067219;28;20246;-83
2023/08/30 08:13:42;;;;;;;10.40;8.48;;;;;;;24.04;52.69;92132.06;5068347;28;20188;-83
2023/08/30 08:16:08;;;;;;;8.70;7.75;;;;;;;23.49;55.41;92130.50;5068219;28;20218;-83
2023/08/30 08:18:33;;;;;;;10.70;8.45;;;;;;;23.83;53.55;92134.56;5065319;28;20212;-84
2023/08/30 08:20:58;;;;;;;11.23;7.78;;;;;;;24.19;52.90;92133.66;5067554;28;20250;-83
2023/08/30 08:23:24;;;;;;;9.60;8.90;;;;;;;24.36;52.01;92132.97;5068192;28;20176;-83
2023/08/30 08:25:56;;;;;;;9.35;7.55;;;;;;;24.26;53.56;92130.28;5065745;28;20227;-84
2023/08/30 08:28:21;;;;;;;10.32;9.27;;;;;;;24.24;53.26;92135.22;5068182;28;20223;-84
2023/08/30 08:30:50;;;;;;;9.15;8.55;;;;;;;23.64;55.22;92090.25;5060965;28;20223;-84
2023/08/30 08:33:17;;;;;;;8.45;7.63;;;;;;;23.95;54.32;92136.94;5068063;28;20211;-81
2023/08/30 08:35:42;;;;;;;9.07;8.25;;;;;;;23.63;54.98;92134.06;5056911;28;20220;-82
2023/08/30 08:38:08;;;;;;;9.73;8.80;;;;;;;24.32;52.11;92136.78;5069021;28;20220;-81
2023/08/30 08:40:39;;;;;;;9.48;8.55;;;;;;;23.83;54.70;92139.88;5060225;28;20288;-78
2023/08/30 08:43:06;;;;;;;14.30;9.50;;;;;;;24.03;56.08;92133.22;5063547;28;20229;-83
2023/08/30 08:45:37;;;;;;;13.35;9.65;;;;;;;23.62;57.31;92127.19;5061811;28;20227;-84
2023/08/30 08:48:04;;;;;;;10.25;9.25;;;;;;;23.88;56.46;92136.88;5068975;28;20196;-85
2023/08/30 08:50:30;;;;;;;9.35;8.50;;;;;;;24.05;55.99;92138.19;5068520;28;20213;-81
2023/08/30 08:52:56;;;;;;;10.55;9.60;;;;;;;24.27;56.34;92134.47;5076501;28;20196;-88
2023/08/30 08:55:22;;;;;;;9.07;8.20;;;;;;;24.50;54.87;92137.63;5069031;28;20228;-90
2023/08/30 08:57:48;;;;;;;10.98;8.88;;;;;;;24.20;54.83;92129.09;5068125;28;20193;-90
2023/08/30 09:00:14;;;;;;;11.38;10.07;;;;;;;24.67;55.12;92132.38;5067408;28;20227;-91
2023/08/30 09:02:40;;;;;;;9.73;8.90;;;;;;;25.16;52.48;92134.41;5069405;28;20183;-89
2023/08/30 09:05:07;;;;;;;10.85;9.10;;;;;;;24.68;54.54;92131.25;5068689;28;20195;-90
2023/08/30 09:07:33;;;;;;;10.77;9.02;;;;;;;24.40;54.95;92135.69;5068486;28;20180;-90
2023/08/30 09:09:59;;;;;;;9.75;8.85;;;;;;;24.18;55.28;92131.38;5068729;28;20230;-90
2023/08/30 09:12:24;;;;;;;10.20;9.20;;;;;;;24.38;55.02;92130.72;5066825;28;20177;-87
2023/08/30 09:14:56;;;;;;;9.25;8.38;;;;;;;24.87;53.15;92122.16;5065306;28;20211;-80
2023/08/30 09:17:21;;;;;;;9.13;8.02;;;;;;;25.02;53.54;92129.03;5080752;28;20171;-89
2023/08/30 09:19:47;;;;;;;8.90;8.18;;;;;;;24.35;55.92;92114.69;5068912;28;20191;-89
2023/08/30 09:22:12;;;;;;;11.27;8.73;;;;;;;25.09;53.25;92129.81;5071534;28;20204;-89
2023/08/30 09:24:41;;;;;;;9.43;8.65;;;;;;;25.22;53.23;92127.56;5068265;28;20215;-91
2023/08/30 09:27:07;;;;;;;9.75;8.88;;;;;;;25.62;52.58;92132.56;5071939;28;20232;-89
2023/08/30 09:29:32;;;;;;;10.00;9.00;;;;;;;25.68;50.59;92125.72;5073168;28;20212;-90
2023/08/30 09:31:58;;;;;;;12.27;8.43;;;;;;;25.59;50.26;92136.00;5074843;28;20322;-88
2023/08/30 09:34:25;;;;;;;9.77;8.77;;;;;;;25.49;52.16;92130.66;5075252;28;20263;-88
2023/08/30 09:36:51;;;;;;;12.18;8.52;;;;;;;25.43;51.61;92140.97;5072333;28;20253;-90
2023/08/30 09:39:16;;;;;;;12.98;8.88;;;;;;;24.75;52.93;92125.16;5073444;28;20185;-90
2023/08/30 09:41:43;;;;;;;10.38;9.48;;;;;;;24.77;52.79;92131.66;5074887;28;20239;-88
2023/08/30 09:44:10;;;;;;;13.75;9.93;;;;;;;24.17;55.15;92124.53;5082488;28;20248;-83
2023/08/30 09:46:52;;;;;;;10.60;9.73;;;;;;;24.52;54.34;92120.09;5071734;28;20736;-90
2023/08/30 09:49:26;;;;;;;10.70;9.15;;;;;;;25.46;52.81;92128.75;5073179;28;20176;-90
2023/08/30 09:51:53;;;;;;;12.02;9.52;;;;;;;25.73;55.45;92113.84;5077887;28;20236;-91
2023/08/30 09:54:20;;;;;;;9.82;9.13;;;;;;;25.57;53.27;92108.91;5077871;28;20215;-91
2023/08/30 09:56:46;;;;;;;10.50;9.52;;;;;;;25.80;52.47;92119.19;5072429;28;20217;-91
2023/08/30 09:59:14;;;;;;;14.13;9.32;;;;;;;24.74;53.76;92113.72;5084400;28;20196;-89
2023/08/30 10:01:41;;;;;;;11.32;9.90;;;;;;;25.31;53.47;92117.25;5072039;28;20919;-89
2023/08/30 10:04:11;;;;;;;10.85;9.82;;;;;;;25.45;52.27;92111.19;5072930;28;20244;-91
2023/08/30 10:06:40;;;;;;;14.38;9.52;;;;;;;24.92;53.57;92114.53;5056405;28;20236;-92
2023/08/30 10:09:07;;;;;;;10.38;9.18;;;;;;;25.19;54.03;92114.94;5077809;28;20182;-91
2023/08/30 10:11:35;;;;;;;11.43;8.88;;;;;;;25.03;55.15;92114.53;5072087;28;20229;-90
2023/08/30 10:14:03;;;;;;;9.60;8.93;;;;;;;24.97;52.74;92084.00;5083166;28;20498;-90
2023/08/30 10:16:50;;;;;;;11.15;8.77;;;;;;;24.94;52.52;92108.81;5071018;28;20917;-88
2023/08/30 10:19:21;;;;;;;10.68;9.88;;;;;;;25.00;53.60;92099.28;5076120;28;20205;-84
2023/08/30 10:22:03;;;;;;;11.27;10.27;;;;;;;25.24;53.75;92096.66;5072927;28;20243;-91
2023/08/30 10:24:35;;;;;;;11.57;9.90;;;;;;;25.15;54.60;92098.16;5060601;28;20261;-90
2023/08/30 10:27:03;;;;;;;9.57;8.80;;;;;;;25.77;52.39;92103.91;5069279;28;20232;-91
2023/08/30 10:29:31;;;;;;;11.52;10.43;;;;;;;25.71;50.78;92103.53;5060827;28;20185;-90
2023/08/30 10:32:02;;;;;;;9.63;8.77;;;;;;;25.74;50.88;92099.31;5073432;28;20231;-90
2023/08/30 10:34:33;;;;;;;11.30;9.65;;;;;;;25.60;51.98;92097.44;5074748;28;20209;-91
2023/08/30 10:37:03;;;;;;;10.52;9.73;;;;;;;25.71;52.73;92094.75;5070691;28;20919;-90
2023/08/30 10:39:41;;;;;;;10.02;9.27;;;;;;;26.12;50.97;92101.97;5071464;28;20182;-89
2023/08/30 10:42:10;;;;;;;10.63;9.65;;;;;;;26.60;49.69;92100.25;5071209;28;20232;-91
2023/08/30 10:44:47;;;;;;;9.63;8.73;;;;;;;26.23;49.91;92091.22;5071827;28;20235;-91
2023/08/30 10:47:31;;;;;;;11.20;10.02;;;;;;;25.71;49.38;92095.53;5071269;28;20221;-89
2023/08/30 10:49:57;;;;;;;10.82;9.82;;;;;;;25.16;49.84;92094.34;5071475;28;20187;-90
2023/08/30 10:52:24;;;;;;;10.52;9.43;;;;;;;25.76;49.48;92091.69;5068885;28;20190;-91
2023/08/30 10:54:50;;;;;;;9.77;8.95;;;;;;;25.88;50.11;92092.06;5060682;28;20185;-77
2023/08/30 10:57:24;;;;;;;11.35;10.23;;;;;;;26.01;48.71;92095.88;5075542;28;20181;-84
2023/08/30 11:00:09;;;;;;;10.35;9.45;;;;;;;26.23;48.37;92097.34;5069843;28;20181;-90
2023/08/30 11:02:38;;;;;;;11.00;10.10;;;;;;;26.03;47.78;92085.53;5069314;28;20544;-88
2023/08/30 11:05:06;;;;;;;10.52;9.52;;;;;;;26.65;45.42;92097.22;5070545;28;20182;-89
2023/08/30 11:07:32;;;;;;;13.35;10.52;;;;;;;26.49;47.29;92083.47;5070985;28;20192;-91
2023/08/30 11:09:58;;;;;;;11.75;10.70;;;;;;;27.07;44.89;92085.50;5070546;28;22149;-90
2023/08/30 11:12:25;;;;;;;10.63;9.75;;;;;;;26.76;46.04;92080.34;5070886;28;20194;-91
2023/08/30 11:14:52;;;;;;;11.38;10.40;;;;;;;26.89;46.19;92081.41;5070961;28;20189;-80
2023/08/30 11:17:18;;;;;;;10.77;9.98;;;;;;;26.35;45.76;92083.53;5082467;28;20196;-90
2023/08/30 11:19:45;;;;;;;11.10;10.02;;;;;;;26.61;45.04;92077.69;5079221;28;20196;-92